Siloam, North Carolina
Current Conditions -  °F | °C
As of 2:35 PM on Thursday 23 Oct 2014 (Local Time) from KMWK Reporting Station
Clear Clear  
Wind Chill: 64°   Ceiling: Unl
Heat Index: 64°   Visibility: 10mi
Dew Point: 42°   Wind: 9mph
Humidity: 46%   Direction: 320°NW
Pressure: 30.04"   Gusts: 17mph
Location:  36.29°N, 80.56°W
Report Text: KMWK 231835Z AUTO 32008G15KT 10SM CLR 18/06 A3004 RMK AO2 T01750058
Loading
Personal Weather Stations






























Interactive Weather Map
Tropical Storm Tracking
New forecast layout! Learn more

10-Day Weather Forecast

Advertisements
Track Severe Weather on mobile